Time;durP1;ratioP1;P1;durP2;ratioP2;P2;SDS_P1;SDS_P2;PMS_P1;PMS_P2;Temp;Humidity;BMP_temperature;BMP_pressure;BME280_temperature;BME280_humidity;BME280_pressure;Samples;Min_cycle;Max_cycle;Signal;HPM_P1;HPM_P2
2022/03/18 00:00:34;;;;;;;8.20;5.10;;;;;;;6.30;100.00;102907.81;4956820;28;20573;-78
2022/03/18 00:03:01;;;;;;;8.57;5.20;;;;;;;6.29;100.00;102914.78;4974826;28;20042;-78
2022/03/18 00:05:28;;;;;;;11.67;5.37;;;;;;;6.38;100.00;102907.22;4956389;28;20050;-78
2022/03/18 00:07:54;;;;;;;11.43;4.83;;;;;;;6.35;100.00;102908.84;4940825;28;20054;-78
2022/03/18 00:10:21;;;;;;;10.87;4.47;;;;;;;6.26;100.00;102914.69;4952226;29;20043;-78
2022/03/18 00:12:51;;;;;;;13.00;5.80;;;;;;;6.47;100.00;102919.75;4954040;28;20045;-79
2022/03/18 00:15:24;;;;;;;12.07;4.97;;;;;;;6.38;100.00;102927.31;4940803;28;20047;-78
2022/03/18 00:17:54;;;;;;;9.10;4.63;;;;;;;6.34;100.00;102928.97;4964373;28;20046;-78
2022/03/18 00:20:24;;;;;;;11.67;5.83;;;;;;;6.22;100.00;102925.91;4952450;29;20106;-78
2022/03/18 00:22:55;;;;;;;8.53;5.00;;;;;;;6.11;100.00;102924.66;4954089;28;20405;-78
2022/03/18 00:25:25;;;;;;;9.00;5.17;;;;;;;6.27;100.00;102936.59;4965254;28;20046;-78
2022/03/18 00:27:52;;;;;;;8.23;4.83;;;;;;;6.23;100.00;102930.34;4957730;28;20405;-78
2022/03/18 00:30:27;;;;;;;10.93;5.77;;;;;;;6.19;100.00;102934.59;4972502;28;20046;-78
2022/03/18 00:33:05;;;;;;;10.63;4.83;;;;;;;6.34;100.00;102944.72;4953685;28;20125;-78
2022/03/18 00:35:35;;;;;;;11.00;4.83;;;;;;;6.44;100.00;102948.53;4940190;28;20046;-78
2022/03/18 00:38:02;;;;;;;11.63;4.83;;;;;;;6.45;100.00;102947.69;4929913;28;20053;-78
2022/03/18 00:40:30;;;;;;;8.47;4.10;;;;;;;6.44;100.00;102952.06;4951403;29;20451;-78
2022/03/18 00:42:57;;;;;;;10.60;4.13;;;;;;;6.34;100.00;102959.59;4955351;28;20482;-78
2022/03/18 00:45:23;;;;;;;7.77;4.30;;;;;;;6.36;100.00;102952.63;4985032;28;20438;-78
2022/03/18 00:53:24;;;;;;;8.67;4.17;;;;;;;6.23;100.00;102953.09;4959556;28;20059;-78
2022/03/18 00:55:51;;;;;;;8.50;4.20;;;;;;;6.36;100.00;102950.03;4955754;28;20495;-78
2022/03/18 00:58:18;;;;;;;9.80;5.00;;;;;;;6.36;100.00;102950.91;4955703;28;20047;-78
2022/03/18 01:00:44;;;;;;;8.60;4.13;;;;;;;6.30;100.00;102955.06;4970144;28;20804;-78
2022/03/18 01:03:12;;;;;;;11.57;4.20;;;;;;;6.33;100.00;102965.69;4939715;28;20049;-78
2022/03/18 01:05:43;;;;;;;8.73;4.07;;;;;;;6.24;100.00;102955.75;4955078;28;20046;-78
2022/03/18 01:08:09;;;;;;;6.97;4.03;;;;;;;6.18;100.00;102959.06;4937468;29;20527;-78
2022/03/18 01:10:36;;;;;;;10.83;5.17;;;;;;;6.18;100.00;102966.03;4936784;28;20130;-78
2022/03/18 01:13:04;;;;;;;9.87;3.50;;;;;;;6.12;100.00;102966.72;4967372;28;20450;-78
2022/03/18 01:15:31;;;;;;;9.43;3.60;;;;;;;6.18;100.00;102969.56;4947112;28;20050;-78
2022/03/18 01:17:58;;;;;;;7.43;3.57;;;;;;;6.17;100.00;102967.78;4940678;28;20046;-78
2022/03/18 01:20:27;;;;;;;9.50;3.60;;;;;;;6.16;100.00;102972.97;4956191;28;20050;-78
2022/03/18 01:22:53;;;;;;;8.57;3.80;;;;;;;6.17;100.00;102969.50;4942837;28;20070;-78
2022/03/18 01:25:22;;;;;;;9.17;3.80;;;;;;;6.05;100.00;102980.44;4939853;28;20086;-78
2022/03/18 01:27:48;;;;;;;8.73;3.13;;;;;;;6.16;100.00;102980.84;4973057;28;20093;-78
2022/03/18 01:30:16;;;;;;;8.63;3.50;;;;;;;6.09;100.00;102987.59;4972101;28;20879;-78
2022/03/18 01:32:49;;;;;;;8.73;3.20;;;;;;;6.20;100.00;102977.47;4953195;28;20111;-78
2022/03/18 01:35:15;;;;;;;13.17;3.50;;;;;;;6.12;100.00;102984.19;4951695;28;20125;-78
2022/03/18 01:37:42;;;;;;;6.10;3.27;;;;;;;6.12;100.00;102976.31;4941911;28;20506;-78
2022/03/18 01:40:10;;;;;;;6.70;3.20;;;;;;;6.23;100.00;102980.22;4946196;28;20058;-79
2022/03/18 01:42:36;;;;;;;5.90;3.20;;;;;;;6.23;100.00;102982.84;4924272;29;20046;-78
2022/03/18 01:45:04;;;;;;;7.23;2.90;;;;;;;6.27;100.00;102981.22;4951654;28;20121;-78
2022/03/18 01:47:34;;;;;;;9.73;3.77;;;;;;;6.15;100.00;102989.56;4957634;28;20054;-78
2022/03/18 01:50:01;;;;;;;8.13;3.20;;;;;;;6.12;100.00;102990.31;4971596;28;20817;-78
2022/03/18 01:52:31;;;;;;;13.43;3.80;;;;;;;6.10;100.00;102981.53;4972763;28;20038;-78
2022/03/18 01:55:00;;;;;;;6.43;2.93;;;;;;;6.16;100.00;102991.34;4968537;28;20057;-78
2022/03/18 01:57:27;;;;;;;9.63;3.20;;;;;;;6.21;100.00;102993.28;4972964;28;20043;-78
2022/03/18 01:59:57;;;;;;;6.60;3.37;;;;;;;6.14;100.00;102990.41;4954298;28;20051;-78
2022/03/18 02:02:27;;;;;;;6.63;2.53;;;;;;;6.14;100.00;102998.28;4961665;28;20051;-78
2022/03/18 02:04:57;;;;;;;4.47;2.70;;;;;;;6.07;100.00;102997.16;4939699;28;20042;-78
2022/03/18 02:07:25;;;;;;;8.63;3.10;;;;;;;6.07;100.00;102998.91;4945595;28;20070;-78
2022/03/18 02:09:55;;;;;;;4.67;2.83;;;;;;;6.15;100.00;103000.06;4943666;28;20422;-78
2022/03/18 02:12:24;;;;;;;9.47;3.50;;;;;;;6.08;100.00;103004.19;4954227;28;20069;-78
2022/03/18 02:14:50;;;;;;;7.53;3.73;;;;;;;6.09;100.00;103013.84;4940388;28;20051;-78
2022/03/18 02:17:18;;;;;;;8.77;3.40;;;;;;;6.04;100.00;103022.38;4940315;28;20054;-78
2022/03/18 02:19:50;;;;;;;8.20;2.93;;;;;;;6.05;100.00;103025.06;4940038;28;20519;-78
2022/03/18 02:22:24;;;;;;;7.90;3.13;;;;;;;6.11;100.00;103024.41;4956618;28;20035;-78
2022/03/18 02:24:54;;;;;;;8.07;3.67;;;;;;;6.06;100.00;103024.25;4971254;28;20376;-78
2022/03/18 02:27:23;;;;;;;7.87;2.77;;;;;;;5.97;100.00;103021.31;4963744;28;20050;-78
2022/03/18 02:29:50;;;;;;;6.30;3.10;;;;;;;5.92;100.00;103030.72;4954772;28;20046;-78
2022/03/18 02:32:18;;;;;;;12.27;3.50;;;;;;;5.83;100.00;103027.72;4970969;28;20111;-78
2022/03/18 02:34:44;;;;;;;7.33;3.20;;;;;;;5.97;100.00;103023.00;4936631;28;20077;-79
2022/03/18 02:37:11;;;;;;;8.10;2.73;;;;;;;5.89;100.00;103028.84;4952170;28;20047;-78
2022/03/18 02:39:38;;;;;;;10.63;3.33;;;;;;;5.91;100.00;103036.81;4974132;28;20043;-78
2022/03/18 02:42:08;;;;;;;7.53;2.73;;;;;;;5.89;100.00;103047.22;4938415;28;20094;-78
2022/03/18 02:44:35;;;;;;;5.43;2.47;;;;;;;5.94;100.00;103055.28;4953087;29;20702;-78
2022/03/18 02:47:01;;;;;;;6.60;2.50;;;;;;;5.81;100.00;103047.78;4936182;29;20051;-78
2022/03/18 02:49:28;;;;;;;6.47;2.93;;;;;;;5.87;100.00;103058.47;4953541;28;20043;-78
2022/03/18 02:51:58;;;;;;;5.43;2.80;;;;;;;5.90;100.00;103062.16;4964835;28;20086;-78
2022/03/18 02:54:25;;;;;;;7.47;3.10;;;;;;;5.97;100.00;103063.28;4940543;28;20688;-78
2022/03/18 02:56:52;;;;;;;6.13;3.47;;;;;;;5.80;100.00;103065.25;4953995;28;20414;-78
2022/03/18 02:59:18;;;;;;;7.83;3.23;;;;;;;5.78;100.00;103072.13;4972189;28;20054;-78
2022/03/18 03:01:45;;;;;;;13.00;4.53;;;;;;;5.81;100.00;103068.75;4952202;28;20039;-78
2022/03/18 03:04:13;;;;;;;10.30;2.83;;;;;;;5.97;100.00;103079.03;4961283;28;20042;-78
2022/03/18 03:09:25;;;;;;;7.83;3.20;;;;;;;5.83;100.00;103072.31;4972775;28;20441;-78
2022/03/18 03:11:52;;;;;;;5.20;2.27;;;;;;;5.72;100.00;103077.19;4949176;28;20039;-78
2022/03/18 03:14:18;;;;;;;6.17;2.40;;;;;;;5.80;100.00;103080.97;4936447;28;20062;-79
2022/03/18 03:16:46;;;;;;;10.40;3.27;;;;;;;5.78;100.00;103094.84;4947764;28;20113;-78
2022/03/18 03:19:14;;;;;;;8.30;2.73;;;;;;;5.74;98.61;103091.22;4960239;28;20043;-78
2022/03/18 03:21:40;;;;;;;8.57;2.77;;;;;;;5.74;100.00;103099.09;4969062;28;20050;-78
2022/03/18 03:24:08;;;;;;;6.93;2.70;;;;;;;5.74;100.00;103101.72;4967497;28;20038;-78
2022/03/18 03:26:35;;;;;;;8.33;2.93;;;;;;;5.67;100.00;103097.06;4951746;28;20047;-78
2022/03/18 03:29:02;;;;;;;10.43;2.73;;;;;;;5.71;100.00;103105.94;4975753;28;20038;-78
2022/03/18 03:31:29;;;;;;;5.50;2.20;;;;;;;5.65;100.00;103109.25;4954072;28;20043;-78
2022/03/18 03:33:55;;;;;;;4.77;2.17;;;;;;;5.49;100.00;103107.75;4957437;28;20050;-78
2022/03/18 03:36:23;;;;;;;6.37;2.37;;;;;;;5.46;100.00;103119.81;4959253;28;20070;-78
2022/03/18 03:38:50;;;;;;;6.77;2.63;;;;;;;5.39;100.00;103118.72;4971724;28;20043;-78
2022/03/18 03:41:20;;;;;;;11.30;2.70;;;;;;;5.29;100.00;103125.28;4955134;28;20096;-78
2022/03/18 03:43:48;;;;;;;5.70;2.00;;;;;;;5.17;100.00;103123.91;4963667;28;20050;-78
2022/03/18 03:46:14;;;;;;;6.37;2.87;;;;;;;5.12;100.00;103126.31;4961732;28;20102;-78
2022/03/18 03:48:41;;;;;;;8.03;2.80;;;;;;;5.13;100.00;103132.44;4936951;28;20053;-78
2022/03/18 03:51:08;;;;;;;5.83;2.17;;;;;;;4.96;100.00;103137.91;4954125;28;20089;-78
2022/03/18 03:53:34;;;;;;;4.30;1.80;;;;;;;4.84;100.00;103132.13;4954808;28;20101;-78
2022/03/18 03:56:01;;;;;;;5.87;2.10;;;;;;;4.73;100.00;103128.19;4935473;29;20051;-78
2022/03/18 03:58:28;;;;;;;6.87;2.30;;;;;;;4.70;100.00;103134.16;4953072;29;20557;-78
2022/03/18 04:00:54;;;;;;;11.33;3.93;;;;;;;4.57;100.00;103137.09;4974872;28;20043;-78
2022/03/18 04:03:22;;;;;;;7.10;2.93;;;;;;;4.50;100.00;103143.78;4961055;28;20043;-78
2022/03/18 04:05:48;;;;;;;9.57;2.50;;;;;;;4.43;100.00;103143.44;4956549;28;20094;-78
2022/03/18 04:08:15;;;;;;;9.90;2.40;;;;;;;4.30;100.00;103148.97;4951887;28;20050;-78
2022/03/18 04:10:42;;;;;;;11.47;3.17;;;;;;;4.17;100.00;103145.78;4953268;28;20111;-78
2022/03/18 04:13:10;;;;;;;11.53;2.80;;;;;;;4.14;100.00;103149.97;4956855;28;20043;-78
2022/03/18 04:15:38;;;;;;;7.70;2.60;;;;;;;3.94;100.00;103156.88;4970611;28;20413;-78
2022/03/18 04:18:05;;;;;;;10.83;2.27;;;;;;;3.77;100.00;103156.09;4972666;28;20062;-78
2022/03/18 04:20:33;;;;;;;10.10;2.63;;;;;;;3.74;100.00;103155.97;4953776;28;20051;-78
2022/03/18 04:23:00;;;;;;;7.57;2.80;;;;;;;3.63;100.00;103163.31;4938899;28;20047;-78
2022/03/18 04:25:32;;;;;;;9.07;2.40;;;;;;;3.46;100.00;103176.38;4968759;28;20678;-78
2022/03/18 04:27:59;;;;;;;4.90;1.87;;;;;;;3.42;100.00;103185.78;4959545;28;20054;-78
2022/03/18 04:30:26;;;;;;;10.63;2.60;;;;;;;3.32;100.00;103194.00;4956664;28;20043;-78
2022/03/18 04:32:54;;;;;;;5.77;2.13;;;;;;;3.29;100.00;103205.19;4962014;28;20948;-78
2022/03/18 04:35:21;;;;;;;10.93;2.80;;;;;;;3.22;100.00;103204.81;4957029;28;20446;-78
2022/03/18 04:37:48;;;;;;;8.27;2.80;;;;;;;3.09;100.00;103212.00;4958312;28;20058;-78
2022/03/18 04:40:15;;;;;;;13.23;3.10;;;;;;;3.13;100.00;103225.25;4951299;28;20043;-78
2022/03/18 04:42:44;;;;;;;11.27;2.33;;;;;;;3.01;100.00;103220.25;4956996;28;20043;-78
2022/03/18 04:45:12;;;;;;;6.00;2.73;;;;;;;2.88;100.00;103223.09;4943679;28;20043;-78
2022/03/18 04:47:39;;;;;;;10.77;2.80;;;;;;;2.86;100.00;103232.53;4943765;28;20055;-77
2022/03/18 04:50:06;;;;;;;8.07;3.00;;;;;;;2.70;100.00;103236.06;4956845;28;20057;-78
2022/03/18 04:52:33;;;;;;;4.53;2.83;;;;;;;2.79;100.00;103237.44;4939956;28;20097;-77
2022/03/18 04:55:00;;;;;;;8.83;2.83;;;;;;;2.76;100.00;103234.66;4955075;28;21625;-78
2022/03/18 04:57:26;;;;;;;6.57;2.87;;;;;;;2.66;100.00;103245.44;4956940;28;20051;-78
2022/03/18 04:59:54;;;;;;;9.80;3.13;;;;;;;2.51;100.00;103245.50;4952645;29;20109;-78
2022/03/18 05:02:20;;;;;;;10.13;3.57;;;;;;;2.58;100.00;103254.56;4943531;28;20066;-78
2022/03/18 05:04:48;;;;;;;9.83;2.80;;;;;;;2.50;100.00;103248.03;4939495;28;20053;-78
2022/03/18 05:07:16;;;;;;;6.57;2.30;;;;;;;2.42;100.00;103259.78;4947649;28;20047;-77
2022/03/18 05:09:45;;;;;;;7.07;3.27;;;;;;;2.33;100.00;103256.66;4938163;28;20055;-78
2022/03/18 05:12:15;;;;;;;10.53;2.60;;;;;;;2.26;100.00;103253.72;4951050;28;20042;-78
2022/03/18 05:14:44;;;;;;;13.10;3.70;;;;;;;2.22;100.00;103259.59;4955976;28;20042;-79
2022/03/18 05:17:11;;;;;;;8.97;2.80;;;;;;;2.23;100.00;103260.47;4938719;28;20096;-79
2022/03/18 05:19:38;;;;;;;11.17;3.20;;;;;;;2.17;100.00;103267.97;4940149;28;20429;-77
2022/03/18 05:22:09;;;;;;;7.93;3.10;;;;;;;2.09;100.00;103259.72;4938008;28;20046;-78
2022/03/18 05:24:36;;;;;;;6.73;2.50;;;;;;;2.10;100.00;103271.03;4956028;28;20125;-78
2022/03/18 05:27:03;;;;;;;7.73;2.30;;;;;;;2.06;100.00;103272.59;4952121;28;20043;-77
2022/03/18 05:29:31;;;;;;;8.60;2.93;;;;;;;1.97;100.00;103272.06;4941082;28;20462;-78
2022/03/18 05:31:57;;;;;;;8.37;2.70;;;;;;;1.96;100.00;103268.56;4938340;28;20051;-78
2022/03/18 05:34:24;;;;;;;8.83;3.17;;;;;;;1.85;100.00;103273.97;4924968;28;20043;-78
2022/03/18 05:36:51;;;;;;;6.63;2.97;;;;;;;1.86;100.00;103275.78;4956091;28;20046;-78
2022/03/18 05:39:18;;;;;;;5.73;2.53;;;;;;;1.81;100.00;103285.03;4939937;28;20058;-78
2022/03/18 05:41:45;;;;;;;9.70;3.00;;;;;;;1.74;100.00;103283.78;4938626;28;20449;-78
2022/03/18 05:44:12;;;;;;;10.53;2.63;;;;;;;1.66;100.00;103298.97;4942470;28;20074;-78
2022/03/18 05:46:44;;;;;;;4.73;2.50;;;;;;;1.65;100.00;103298.91;4953334;28;20050;-78
2022/03/18 05:49:11;;;;;;;9.07;2.83;;;;;;;1.65;100.00;103302.41;4943075;28;20145;-78
2022/03/18 05:51:38;;;;;;;5.87;2.60;;;;;;;1.54;100.00;103306.09;4955367;28;20732;-78
2022/03/18 05:54:05;;;;;;;7.17;2.70;;;;;;;1.56;100.00;103311.38;4930699;28;20441;-78
2022/03/18 05:56:54;;;;;;;8.63;2.37;;;;;;;1.60;100.00;103310.78;4957628;28;20043;-78
2022/03/18 05:59:28;;;;;;;6.60;2.60;;;;;;;1.59;100.00;103309.84;4959670;28;20075;-78
2022/03/18 06:01:57;;;;;;;6.50;2.58;;;;;;;1.60;100.00;103319.50;4942748;28;20049;-78
2022/03/18 06:04:24;;;;;;;11.37;2.87;;;;;;;1.59;100.00;103320.25;4949303;28;20413;-78
2022/03/18 06:06:52;;;;;;;7.30;3.67;;;;;;;1.63;100.00;103329.19;4955557;28;20042;-78
2022/03/18 06:12:04;;;;;;;12.07;4.57;;;;;;;1.55;100.00;103331.34;4959056;28;20506;-78
2022/03/18 06:14:31;;;;;;;10.47;2.37;;;;;;;1.64;100.00;103339.69;4957798;28;20050;-78
2022/03/18 06:17:00;;;;;;;7.80;2.97;;;;;;;1.68;100.00;103344.28;4952820;28;20051;-78
2022/03/18 06:19:28;;;;;;;12.33;3.60;;;;;;;1.73;100.00;103347.16;4957316;28;20050;-77
2022/03/18 06:21:55;;;;;;;8.43;3.87;;;;;;;1.67;100.00;103346.78;4954658;28;20051;-78
2022/03/18 06:24:23;;;;;;;6.90;2.53;;;;;;;1.70;100.00;103349.59;4941452;28;20053;-78
2022/03/18 06:26:51;;;;;;;9.33;2.83;;;;;;;1.74;100.00;103353.25;4959117;28;20047;-78
2022/03/18 06:29:19;;;;;;;10.37;4.43;;;;;;;1.77;100.00;103354.34;4941497;28;20047;-78
2022/03/18 06:31:46;;;;;;;11.10;3.77;;;;;;;1.72;100.00;103358.38;4957070;28;20042;-78
2022/03/18 06:34:14;;;;;;;8.47;2.90;;;;;;;1.79;100.00;103359.66;4957896;28;20034;-78
2022/03/18 06:36:42;;;;;;;11.53;3.77;;;;;;;1.82;100.00;103360.72;4937353;28;20097;-78
2022/03/18 06:39:09;;;;;;;7.27;3.10;;;;;;;1.90;100.00;103371.59;4976914;28;20391;-78
2022/03/18 06:41:36;;;;;;;9.30;3.10;;;;;;;1.89;100.00;103380.22;4962557;28;20054;-78
2022/03/18 06:44:03;;;;;;;14.40;3.90;;;;;;;1.93;100.00;103380.50;4938092;29;20071;-78
2022/03/18 06:46:30;;;;;;;8.60;3.40;;;;;;;2.11;100.00;103382.38;4963551;28;20434;-77
2022/03/18 06:48:57;;;;;;;7.70;2.93;;;;;;;2.15;100.00;103389.56;4964745;28;20039;-78
2022/03/18 06:51:23;;;;;;;8.27;3.37;;;;;;;2.16;100.00;103374.00;4950452;28;20098;-78
2022/03/18 06:53:50;;;;;;;7.57;2.90;;;;;;;2.20;100.00;103372.47;4940836;28;20606;-78
2022/03/18 06:56:17;;;;;;;9.27;3.80;;;;;;;2.34;100.00;103371.53;4962007;28;20049;-78
2022/03/18 06:58:44;;;;;;;10.77;3.30;;;;;;;2.37;100.00;103358.69;4955376;28;20054;-78
2022/03/18 07:01:11;;;;;;;10.57;4.83;;;;;;;2.51;100.00;103369.84;4950027;28;20047;-78
2022/03/18 07:03:38;;;;;;;11.80;4.03;;;;;;;2.62;100.00;103368.78;4930983;28;20038;-78
2022/03/18 07:06:06;;;;;;;13.13;4.27;;;;;;;2.78;100.00;103373.13;4950898;28;20047;-78
2022/03/18 07:08:34;;;;;;;9.30;3.80;;;;;;;2.97;100.00;103381.13;4924003;28;20078;-78
2022/03/18 07:11:02;;;;;;;10.77;3.57;;;;;;;3.02;100.00;103382.25;4933794;29;20043;-78
2022/03/18 07:13:29;;;;;;;13.20;4.20;;;;;;;3.14;100.00;103386.38;4950981;28;20047;-77
2022/03/18 07:15:55;;;;;;;10.30;2.83;;;;;;;3.45;100.00;103399.31;4952561;28;20046;-78
2022/03/18 07:18:22;;;;;;;17.80;4.37;;;;;;;3.77;100.00;103394.03;4954031;28;20074;-78
2022/03/18 07:20:49;;;;;;;9.17;3.60;;;;;;;4.04;100.00;103391.06;4951763;28;20070;-78
2022/03/18 07:23:17;;;;;;;9.67;4.47;;;;;;;4.36;100.00;103393.50;4944242;28;20042;-78
2022/03/18 07:25:48;;;;;;;12.43;3.13;;;;;;;4.60;100.00;103399.03;4933705;29;20062;-78
2022/03/18 07:28:18;;;;;;;7.77;3.97;;;;;;;4.77;100.00;103391.97;4935006;28;20070;-78
2022/03/18 07:30:45;;;;;;;8.90;3.20;;;;;;;4.97;100.00;103392.91;4946787;29;20045;-78
2022/03/18 07:33:12;;;;;;;9.73;3.33;;;;;;;5.26;100.00;103402.09;4959215;28;20114;-78
2022/03/18 07:36:01;;;;;;;11.13;3.73;;;;;;;5.30;97.24;103410.19;4952764;28;20054;-77
2022/03/18 07:38:32;;;;;;;10.63;2.73;;;;;;;5.45;98.15;103409.94;4940913;28;20054;-77
2022/03/18 07:40:59;;;;;;;12.00;3.20;;;;;;;5.62;94.67;103408.06;4969343;28;20117;-77
2022/03/18 07:43:25;;;;;;;7.73;2.60;;;;;;;5.73;92.00;103421.69;4943913;28;20050;-77
2022/03/18 07:45:52;;;;;;;18.60;4.80;;;;;;;5.81;94.26;103422.91;4939174;28;20074;-78
2022/03/18 07:48:20;;;;;;;8.00;3.03;;;;;;;5.81;90.18;103422.91;4933677;28;20089;-78
2022/03/18 07:50:47;;;;;;;8.57;2.87;;;;;;;5.68;92.94;103426.72;4926144;28;20133;-77
2022/03/18 07:53:14;;;;;;;11.67;4.10;;;;;;;5.93;91.07;103431.31;4964656;28;20074;-77
2022/03/18 07:55:41;;;;;;;6.80;3.43;;;;;;;5.98;90.33;103432.44;4939149;28;20057;-78
2022/03/18 07:58:08;;;;;;;9.77;4.23;;;;;;;6.13;88.83;103440.03;4974746;28;20117;-78
2022/03/18 08:00:35;;;;;;;11.23;3.57;;;;;;;6.24;87.56;103438.78;4957444;28;20054;-77
2022/03/18 08:03:02;;;;;;;8.37;3.00;;;;;;;6.29;87.52;103444.19;4964333;28;20038;-78
2022/03/18 08:05:29;;;;;;;6.13;2.87;;;;;;;6.39;87.64;103430.59;4957908;28;20051;-78
2022/03/18 08:07:57;;;;;;;10.83;3.43;;;;;;;6.46;87.96;103440.53;4981658;28;20074;-79
2022/03/18 08:10:24;;;;;;;16.07;4.90;;;;;;;6.48;84.82;103442.41;4960405;28;20418;-78
2022/03/18 08:12:52;;;;;;;13.57;3.67;;;;;;;6.44;85.39;103444.84;4979353;28;20497;-79
2022/03/18 08:15:19;;;;;;;12.63;3.53;;;;;;;6.30;84.73;103457.38;4961935;28;20554;-78
2022/03/18 08:17:51;;;;;;;11.07;3.07;;;;;;;6.29;84.35;103462.59;4955646;28;20043;-78
2022/03/18 08:20:20;;;;;;;8.70;3.13;;;;;;;6.37;85.01;103461.16;4949378;28;20047;-78
2022/03/18 08:22:48;;;;;;;9.60;3.43;;;;;;;6.40;85.35;103456.97;4968227;28;20047;-78
2022/03/18 08:25:15;;;;;;;12.17;3.80;;;;;;;6.62;84.60;103461.34;4944863;28;20047;-78
2022/03/18 08:27:42;;;;;;;8.03;2.73;;;;;;;6.69;82.78;103473.00;4977319;28;20089;-78
2022/03/18 08:30:11;;;;;;;11.57;3.47;;;;;;;6.71;83.36;103474.84;4974983;28;20046;-78
2022/03/18 08:32:39;;;;;;;14.43;3.30;;;;;;;6.49;84.25;103480.09;4944649;28;20141;-78
2022/03/18 08:35:07;;;;;;;14.57;4.07;;;;;;;6.54;83.84;103481.16;4959169;28;20104;-78
2022/03/18 08:40:21;;;;;;;12.30;3.40;;;;;;;6.82;83.29;103482.28;4960330;28;20042;-78
2022/03/18 08:42:49;;;;;;;11.77;3.43;;;;;;;6.86;82.96;103489.44;4960799;28;20034;-78
2022/03/18 08:45:16;;;;;;;10.30;3.80;;;;;;;6.97;81.54;103490.75;4974594;28;20038;-78
2022/03/18 08:47:43;;;;;;;12.13;3.93;;;;;;;6.91;81.07;103496.69;4963890;28;20490;-78
2022/03/18 08:50:11;;;;;;;11.37;3.60;;;;;;;7.02;81.62;103497.09;4973963;28;20059;-78
2022/03/18 08:52:38;;;;;;;9.33;3.93;;;;;;;7.14;82.82;103505.47;4959361;28;20057;-78
2022/03/18 08:55:07;;;;;;;10.37;3.77;;;;;;;7.27;84.05;103509.47;4950122;28;20058;-78
2022/03/18 08:57:37;;;;;;;9.33;3.03;;;;;;;7.19;80.59;103503.91;4950294;28;20050;-77
2022/03/18 09:00:06;;;;;;;10.30;4.03;;;;;;;7.39;79.61;103499.41;4944867;28;20062;-78
2022/03/18 09:02:35;;;;;;;11.10;2.70;;;;;;;7.49;77.33;103505.94;4953039;28;20958;-78
2022/03/18 09:05:03;;;;;;;10.50;2.80;;;;;;;7.43;79.08;103503.97;4972794;28;20112;-78
2022/03/18 09:07:30;;;;;;;10.30;3.30;;;;;;;7.45;78.05;103502.28;4956554;28;20588;-78
2022/03/18 09:09:57;;;;;;;9.03;3.20;;;;;;;7.58;80.05;103496.66;4956166;28;20046;-78
2022/03/18 09:12:23;;;;;;;9.30;3.67;;;;;;;7.86;76.75;103509.06;4966749;28;20062;-78
2022/03/18 09:14:50;;;;;;;8.43;3.30;;;;;;;7.96;74.61;103504.16;5028971;23;20133;-82
2022/03/18 09:17:17;;;;;;;9.73;3.10;;;;;;;8.30;74.67;103500.94;4959407;28;20047;-81
2022/03/18 09:19:43;;;;;;;11.43;3.40;;;;;;;8.59;73.58;103512.53;4941987;28;20051;-82
2022/03/18 09:22:10;;;;;;;9.38;3.45;;;;;;;8.80;72.26;103505.31;4948673;28;20101;-82
2022/03/18 09:24:37;;;;;;;10.30;3.63;;;;;;;8.65;71.65;103507.44;4937934;28;20038;-81
2022/03/18 09:27:04;;;;;;;7.80;3.13;;;;;;;8.87;70.88;103499.38;4954251;28;20043;-80
2022/03/18 09:29:31;;;;;;;9.77;3.50;;;;;;;9.30;71.43;103506.00;4940699;28;20109;-81
2022/03/18 09:31:58;;;;;;;10.15;3.42;;;;;;;9.55;68.69;103508.50;4949122;28;20039;-81
2022/03/18 09:34:24;;;;;;;6.70;2.40;;;;;;;9.89;71.25;103509.47;4953626;28;20051;-81
2022/03/18 09:36:52;;;;;;;8.90;2.60;;;;;;;10.12;66.12;103511.00;4939071;28;20049;-81
2022/03/18 09:39:20;;;;;;;6.82;2.90;;;;;;;10.26;63.46;103515.81;4956025;28;20051;-82
2022/03/18 09:41:47;;;;;;;11.98;3.50;;;;;;;10.31;64.18;103520.34;4966875;28;20500;-83
2022/03/18 09:44:14;;;;;;;7.53;3.03;;;;;;;10.55;66.31;103520.09;4953962;28;20043;-80
2022/03/18 09:46:41;;;;;;;5.57;3.00;;;;;;;10.41;61.41;103521.47;4937482;28;20564;-83
2022/03/18 09:49:16;;;;;;;6.75;3.35;;;;;;;10.33;62.52;103528.31;4938347;28;20070;-82
2022/03/18 09:51:44;;;;;;;9.35;2.90;;;;;;;10.80;61.32;103518.03;4946323;28;20046;-83
2022/03/18 09:54:16;;;;;;;10.80;2.80;;;;;;;10.69;57.71;103533.66;4939658;28;20039;-82
2022/03/18 09:56:45;;;;;;;12.20;5.57;;;;;;;10.74;57.41;103528.47;4935618;29;20051;-83
2022/03/18 09:59:13;;;;;;;9.43;2.50;;;;;;;11.00;57.18;103524.69;4946249;28;20509;-83
2022/03/18 10:01:39;;;;;;;9.38;3.30;;;;;;;11.19;56.86;103526.94;4938083;28;20042;-83
2022/03/18 10:04:11;;;;;;;11.63;2.75;;;;;;;11.12;56.27;103534.69;4956920;28;20042;-83
2022/03/18 10:06:42;;;;;;;9.57;3.38;;;;;;;11.05;56.67;103533.66;4955302;28;20055;-84
2022/03/18 10:09:14;;;;;;;7.55;2.88;;;;;;;11.01;56.03;103526.47;4940419;28;20055;-81
2022/03/18 10:11:43;;;;;;;4.35;2.65;;;;;;;11.12;56.60;103535.56;4935660;29;20058;-81
2022/03/18 10:14:18;;;;;;;11.35;2.58;;;;;;;11.17;55.12;103536.56;4954332;28;20038;-82
2022/03/18 10:16:50;;;;;;;6.97;3.28;;;;;;;11.14;53.60;103530.31;4915667;28;20042;-83
2022/03/18 10:19:20;;;;;;;7.22;2.42;;;;;;;11.39;54.07;103529.13;4940494;28;20137;-81
2022/03/18 10:21:53;;;;;;;6.07;2.42;;;;;;;11.62;53.85;103538.47;4938875;28;20043;-81
2022/03/18 10:24:27;;;;;;;9.38;2.60;;;;;;;11.51;53.21;103538.19;4939779;28;20043;-80
2022/03/18 10:27:17;;;;;;;6.97;2.35;;;;;;;12.02;54.27;103534.91;4927913;28;20060;-82
2022/03/18 10:29:58;;;;;;;10.68;2.60;;;;;;;12.38;53.23;103526.72;4946028;28;20047;-81
2022/03/18 10:32:29;;;;;;;9.38;2.80;;;;;;;12.46;50.12;103523.31;4945364;28;20078;-81
2022/03/18 10:37:48;;;;;;;6.32;2.40;;;;;;;12.62;49.17;103531.56;4958635;28;20047;-82
2022/03/18 10:40:19;;;;;;;6.78;2.70;;;;;;;12.79;47.81;103542.47;4945211;28;20038;-82
2022/03/18 10:43:02;;;;;;;8.23;2.45;;;;;;;12.84;48.28;103545.16;4947747;28;20042;-82
2022/03/18 10:45:29;;;;;;;7.15;2.08;;;;;;;13.01;48.12;103542.78;4957042;28;20046;-82
2022/03/18 10:48:12;;;;;;;6.43;2.05;;;;;;;12.49;45.00;103549.88;4925362;28;20138;-82
2022/03/18 10:50:40;;;;;;;7.65;2.22;;;;;;;12.69;45.18;103548.44;4947701;28;20055;-82
2022/03/18 10:53:12;;;;;;;5.85;2.10;;;;;;;12.92;45.82;103548.84;4925413;29;20115;-83
2022/03/18 10:55:40;;;;;;;6.78;2.50;;;;;;;12.94;46.16;103550.63;4942135;28;20517;-83
2022/03/18 10:58:10;;;;;;;5.80;2.28;;;;;;;13.06;46.76;103549.06;4944818;28;20048;-83
2022/03/18 11:00:40;;;;;;;5.30;2.10;;;;;;;12.95;45.98;103544.50;4949284;28;20047;-83
2022/03/18 11:03:07;;;;;;;4.70;2.58;;;;;;;12.83;45.31;103536.31;4928298;28;20086;-83
2022/03/18 11:05:39;;;;;;;5.63;2.40;;;;;;;13.03;46.30;103526.03;4942307;28;20123;-82
2022/03/18 11:08:09;;;;;;;7.80;2.45;;;;;;;12.62;44.15;103530.69;4943962;28;20097;-82
2022/03/18 11:13:44;;;;;;;4.88;1.67;;;;;;;13.14;40.51;103527.06;4960974;28;20050;-82
2022/03/18 11:16:12;;;;;;;3.58;1.40;;;;;;;13.40;41.12;103531.91;4946452;29;20051;-82
2022/03/18 11:18:39;;;;;;;4.38;1.80;;;;;;;12.98;40.25;103527.72;4960123;28;20437;-81
2022/03/18 11:21:07;;;;;;;6.20;2.10;;;;;;;12.89;40.79;103532.88;4935738;29;20110;-81
2022/03/18 11:23:37;;;;;;;6.95;1.92;;;;;;;13.31;40.67;103529.13;4922637;29;20061;-82
2022/03/18 11:26:05;;;;;;;7.78;2.13;;;;;;;13.18;39.71;103522.69;4937644;28;20047;-83
2022/03/18 11:28:31;;;;;;;4.28;1.70;;;;;;;13.00;37.75;103530.38;4925039;28;20046;-82
2022/03/18 11:31:06;;;;;;;5.82;2.08;;;;;;;13.30;38.90;103524.69;4938499;28;20070;-83
2022/03/18 11:33:34;;;;;;;7.80;1.98;;;;;;;12.58;40.75;103531.47;4973843;28;20055;-82
2022/03/18 11:36:00;;;;;;;8.85;1.70;;;;;;;13.14;40.46;103524.41;4952576;28;20093;-82
2022/03/18 11:39:12;;;;;;;7.15;2.08;;;;;;;12.60;38.70;103529.72;4951801;28;20471;-83
2022/03/18 11:41:53;;;;;;;6.65;1.70;;;;;;;13.07;40.35;103533.16;4946977;28;20399;-83
2022/03/18 11:44:59;;;;;;;5.60;3.00;;;;;;;13.20;40.43;103513.00;4941124;28;20042;-82
2022/03/18 11:47:30;;;;;;;4.85;2.00;;;;;;;13.47;41.04;103524.03;4946534;28;20433;-82
2022/03/18 11:50:38;;;;;;;4.72;1.60;;;;;;;12.68;39.28;103531.66;4941918;28;20073;-83